Time;durP1;ratioP1;P1;durP2;ratioP2;P2;SDS_P1;SDS_P2;PMS_P1;PMS_P2;Temp;Humidity;BMP_temperature;BMP_pressure;BME280_temperature;BME280_humidity;BME280_pressure;Samples;Min_cycle;Max_cycle;Signal;HPM_P1;HPM_P2
2022/05/30 00:01:21;;;;;;;;;3.50;3.50;;;;;12.38;59.87;100985.78;5064256;28;45212;-63
2022/05/30 00:03:46;;;;;;;;;3.50;3.00;;;;;12.33;59.47;100982.47;5062091;28;45247;-63
2022/05/30 00:06:15;;;;;;;;;6.25;4.50;;;;;12.29;59.46;100981.72;5062043;28;46356;-63
2022/05/30 00:08:41;;;;;;;;;3.50;2.75;;;;;12.27;63.06;100991.34;5062000;28;45310;-63
2022/05/30 00:11:09;;;;;;;;;4.00;3.75;;;;;12.19;62.33;100988.09;5061915;28;45363;-64
2022/05/30 00:13:35;;;;;;;;;2.25;2.25;;;;;12.14;60.93;100974.34;5062011;28;45398;-64
2022/05/30 00:16:09;;;;;;;;;2.00;2.00;;;;;12.12;61.05;100986.59;5061491;28;46648;-63
2022/05/30 00:18:35;;;;;;;;;3.25;3.00;;;;;12.09;60.97;100979.72;5061956;28;45391;-64
2022/05/30 00:21:01;;;;;;;;;8.50;4.50;;;;;12.07;61.34;100972.84;5061674;28;45208;-64
2022/05/30 00:23:26;;;;;;;;;6.00;4.00;;;;;12.03;62.00;100966.88;5061671;28;45432;-64
2022/05/30 00:25:52;;;;;;;;;8.75;7.75;;;;;11.99;63.21;100974.81;5061437;28;45226;-64
2022/05/30 00:28:18;;;;;;;;;7.25;6.00;;;;;11.92;62.35;100958.53;5061300;28;45245;-64
2022/05/30 00:30:45;;;;;;;;;7.00;6.00;;;;;11.91;63.11;100962.03;5060561;28;45454;-64
2022/05/30 00:33:11;;;;;;;;;5.00;5.00;;;;;11.90;62.57;100956.84;5059696;28;45352;-63
2022/05/30 00:35:39;;;;;;;;;7.50;6.75;;;;;11.88;62.88;100957.75;5060558;28;45429;-63
2022/05/30 00:38:04;;;;;;;;;5.00;5.00;;;;;11.88;63.16;100951.69;5060955;28;46049;-64
2022/05/30 00:40:31;;;;;;;;;4.75;3.25;;;;;11.85;62.95;100957.84;5061599;28;45398;-64
2022/05/30 00:43:15;;;;;;;;;3.25;3.00;;;;;11.84;63.35;100957.91;5061321;28;45337;-64
2022/05/30 00:45:41;;;;;;;;;3.75;3.75;;;;;11.77;66.66;100945.91;5061167;28;45439;-63
2022/05/30 00:48:07;;;;;;;;;4.50;4.50;;;;;11.78;63.85;100948.50;5060278;28;45344;-63
2022/05/30 00:50:32;;;;;;;;;4.00;3.00;;;;;11.76;64.63;100950.25;5058602;28;45342;-64
2022/05/30 00:52:58;;;;;;;;;7.25;4.50;;;;;11.78;63.81;100937.19;5058606;28;45618;-64
2022/05/30 00:55:27;;;;;;;;;7.00;6.25;;;;;11.76;63.66;100942.44;5058960;28;45390;-63
2022/05/30 00:57:52;;;;;;;;;6.00;5.25;;;;;11.75;63.25;100938.13;5058623;28;45426;-65
2022/05/30 01:00:25;;;;;;;;;5.75;5.00;;;;;11.77;63.69;100940.69;5058982;28;45510;-64
2022/05/30 01:06:30;;;;;;;;;7.25;5.00;;;;;11.72;64.39;100934.78;5058997;28;45422;-64
2022/05/30 01:08:29;;;;;;;;;5.50;5.50;;;;;11.72;63.60;100926.97;5049117;28;45762;-63
2022/05/30 01:10:55;;;;;;;;;6.00;4.25;;;;;11.72;64.31;100935.63;5061181;28;45373;-63
2022/05/30 01:13:23;;;;;;;;;5.75;3.00;;;;;11.73;63.66;100920.88;5060860;28;45552;-63
2022/05/30 01:15:49;;;;;;;;;7.00;6.00;;;;;11.72;64.24;100916.56;5060695;28;46478;-63
2022/05/30 01:18:21;;;;;;;;;4.75;3.00;;;;;11.71;63.96;100925.25;5059670;28;45501;-63
2022/05/30 01:21:25;;;;;;;;;4.75;3.25;;;;;11.71;64.25;100922.66;5060827;28;45298;-63
2022/05/30 01:24:25;;;;;;;;;0.75;0.00;;;;;11.70;64.72;100919.22;5060661;28;45339;-63
2022/05/30 01:27:01;;;;;;;;;7.75;3.00;;;;;11.68;65.66;100921.00;5058637;28;47049;-63
2022/05/30 01:29:38;;;;;;;;;7.00;5.00;;;;;11.66;64.25;100917.59;5060774;28;45433;-62
2022/05/30 01:32:04;;;;;;;;;3.00;3.00;;;;;11.64;64.92;100921.16;5060919;28;45331;-62
2022/05/30 01:34:29;;;;;;;;;3.00;3.00;;;;;11.62;65.28;100917.72;5073729;28;45478;-63
2022/05/30 01:36:55;;;;;;;;;6.00;4.25;;;;;11.60;65.85;100915.16;5060200;28;46227;-63
2022/05/30 01:39:20;;;;;;;;;5.00;5.00;;;;;11.59;66.37;100916.91;5060340;28;45252;-63
2022/05/30 01:41:48;;;;;;;;;7.00;4.75;;;;;11.55;67.32;100920.50;5060459;28;45426;-63
2022/05/30 01:44:14;;;;;;;;;6.00;6.00;;;;;11.54;65.92;100916.19;5060266;28;45474;-63
2022/05/30 01:46:40;;;;;;;;;4.25;4.00;;;;;11.48;66.19;100913.78;5060272;28;46153;-63
2022/05/30 01:49:06;;;;;;;;;5.50;4.00;;;;;11.50;65.39;100919.78;5060309;28;45774;-63
2022/05/30 01:51:32;;;;;;;;;5.00;4.00;;;;;11.46;68.78;100912.97;5060093;28;45295;-63
2022/05/30 01:53:58;;;;;;;;;7.25;4.00;;;;;11.41;66.38;100922.66;5060222;28;45193;-63
2022/05/30 01:56:24;;;;;;;;;6.00;3.50;;;;;11.35;68.89;100914.16;5060299;28;46185;-63
2022/05/30 01:58:50;;;;;;;;;7.00;4.00;;;;;11.34;68.20;100925.44;5060177;28;45819;-63
2022/05/30 02:01:18;;;;;;;;;4.50;4.50;;;;;11.26;68.84;100923.91;5059221;28;45495;-63
2022/05/30 02:03:45;;;;;;;;;7.50;5.25;;;;;11.24;67.09;100923.13;5060185;28;45410;-63
2022/05/30 02:06:12;;;;;;;;;8.00;5.00;;;;;11.21;69.86;100924.91;5060016;28;46360;-63
2022/05/30 02:08:38;;;;;;;;;8.25;8.25;;;;;11.19;68.14;100924.97;5059948;28;45310;-63
2022/05/30 02:11:03;;;;;;;;;5.75;3.00;;;;;11.17;68.26;100925.91;5060150;28;45214;-63
2022/05/30 02:13:29;;;;;;;;;3.00;3.00;;;;;11.13;69.04;100924.28;5060024;28;45224;-63
2022/05/30 02:18:39;;;;;;;;;8.25;4.00;;;;;11.09;70.67;100917.47;5059925;28;45221;-63
2022/05/30 02:21:04;;;;;;;;;8.00;4.25;;;;;11.08;67.88;100918.34;5059816;28;45403;-63
2022/05/30 02:23:29;;;;;;;;;7.75;7.75;;;;;11.07;67.30;100917.50;5059597;28;45569;-63
2022/05/30 02:25:55;;;;;;;;;5.50;5.50;;;;;11.07;68.18;100921.84;5059660;28;45726;-63
2022/05/30 02:28:20;;;;;;;;;9.75;6.75;;;;;11.03;69.42;100915.88;5059790;28;45456;-63
2022/05/30 02:30:46;;;;;;;;;9.25;8.00;;;;;10.96;69.44;100907.38;5059562;28;45478;-63
2022/05/30 02:38:47;;;;;;;;;8.25;8.00;;;;;10.91;69.87;100909.25;5058313;28;45232;-65
2022/05/30 02:41:12;;;;;;;;;13.50;9.50;;;;;10.90;67.97;100910.16;5059834;28;45507;-64
2022/05/30 02:43:39;;;;;;;;;10.75;8.00;;;;;10.92;69.85;100912.69;5059425;28;45158;-64
2022/05/30 02:46:05;;;;;;;;;10.75;8.75;;;;;10.89;68.52;100912.78;5058965;28;47230;-64
2022/05/30 02:48:31;;;;;;;;;10.50;8.50;;;;;10.90;67.94;100917.09;5059420;28;45477;-64
2022/05/30 02:50:56;;;;;;;;;9.00;6.00;;;;;10.90;69.24;100912.75;5059219;28;45356;-64
2022/05/30 02:53:21;;;;;;;;;12.00;10.25;;;;;10.90;67.91;100917.94;5059291;28;45307;-64
2022/05/30 02:55:47;;;;;;;;;8.50;8.50;;;;;10.89;68.53;100924.03;5059341;28;45446;-64
2022/05/30 02:58:12;;;;;;;;;7.00;5.25;;;;;10.92;69.44;100913.56;5058542;28;45512;-64
2022/05/30 03:00:38;;;;;;;;;8.75;8.00;;;;;10.93;68.52;100917.00;5059158;28;45478;-63
2022/05/30 03:03:04;;;;;;;;;7.00;3.75;;;;;10.92;68.50;100905.75;5058759;28;45585;-64
2022/05/30 03:05:30;;;;;;;;;9.25;7.75;;;;;10.91;67.81;100909.25;5059382;28;45590;-64
2022/05/30 03:07:56;;;;;;;;;8.25;6.25;;;;;10.92;69.73;100910.09;5059006;28;45570;-65
2022/05/30 03:10:21;;;;;;;;;6.75;5.50;;;;;10.91;68.46;100913.59;5059574;28;45189;-65
2022/05/30 03:12:46;;;;;;;;;13.50;7.00;;;;;10.90;67.67;100906.69;5060323;28;45165;-65
2022/05/30 03:15:12;;;;;;;;;6.75;6.75;;;;;10.91;69.21;100911.00;5062735;28;45296;-65
2022/05/30 03:17:37;;;;;;;;;6.50;6.50;;;;;10.91;67.82;100918.81;5062718;28;45429;-64
2022/05/30 03:20:03;;;;;;;;;3.75;2.75;;;;;10.91;68.42;100919.66;5062750;28;45255;-64
2022/05/30 03:22:29;;;;;;;;;8.50;7.75;;;;;10.91;68.67;100916.19;5062389;28;45335;-65
2022/05/30 03:24:54;;;;;;;;;7.00;6.00;;;;;10.88;71.23;100929.28;5062797;28;45635;-65
2022/05/30 03:27:19;;;;;;;;;10.00;8.00;;;;;10.83;68.32;100919.00;5062542;28;45386;-64
2022/05/30 03:29:45;;;;;;;;;7.50;7.00;;;;;10.86;68.26;100920.66;5062572;28;45405;-64
2022/05/30 03:32:10;;;;;;;;;14.00;7.00;;;;;10.83;68.55;100929.41;5062477;28;45285;-65
2022/05/30 03:34:35;;;;;;;;;14.00;7.25;;;;;10.79;69.13;100929.50;5062740;28;45378;-64
2022/05/30 03:37:01;;;;;;;;;9.50;9.50;;;;;10.77;70.11;100929.53;5062451;28;45309;-64
2022/05/30 03:39:26;;;;;;;;;7.50;7.50;;;;;10.72;70.26;100923.59;5062667;28;45255;-65
2022/05/30 03:41:52;;;;;;;;;11.50;8.75;;;;;10.69;71.51;100921.09;5061014;28;45606;-65
2022/05/30 03:44:18;;;;;;;;;8.50;7.75;;;;;10.66;69.86;100924.63;5062209;28;45472;-65
2022/05/30 03:46:43;;;;;;;;;10.00;6.50;;;;;10.68;70.55;100932.38;5062286;28;45262;-65
2022/05/30 03:49:08;;;;;;;;;7.50;6.00;;;;;10.63;69.79;100923.84;5062317;28;45306;-65
2022/05/30 03:51:34;;;;;;;;;11.25;9.00;;;;;10.58;70.35;100918.75;5061999;28;45316;-65
2022/05/30 03:54:00;;;;;;;;;10.00;7.50;;;;;10.59;71.55;100927.41;5061855;28;45246;-65
2022/05/30 03:56:25;;;;;;;;;9.00;8.25;;;;;10.57;71.06;100924.84;5062047;28;45271;-65
2022/05/30 03:58:50;;;;;;;;;14.50;9.75;;;;;10.60;70.23;100929.94;5062119;28;45332;-65
2022/05/30 04:01:16;;;;;;;;;7.75;7.00;;;;;10.56;69.97;100930.06;5061565;28;45490;-64
2022/05/30 04:03:42;;;;;;;;;6.50;5.50;;;;;10.57;72.26;100930.03;5061907;28;46529;-64
2022/05/30 04:06:08;;;;;;;;;8.75;8.00;;;;;10.56;70.39;100938.72;5061810;28;45229;-64
2022/05/30 04:08:34;;;;;;;;;8.00;7.00;;;;;10.52;71.27;100937.09;5061128;28;45239;-64
2022/05/30 04:11:00;;;;;;;;;10.00;10.00;;;;;10.56;70.77;100937.88;5059865;28;45381;-64
2022/05/30 04:13:25;;;;;;;;;12.25;6.75;;;;;10.55;71.59;100941.34;5060941;28;46244;-64
2022/05/30 04:15:51;;;;;;;;;17.00;9.75;;;;;10.55;70.58;100952.59;5060988;28;45394;-64
2022/05/30 04:18:16;;;;;;;;;7.25;5.75;;;;;10.54;71.09;100943.09;5062143;28;45414;-64
2022/05/30 04:20:41;;;;;;;;;7.25;3.00;;;;;10.54;71.62;100955.25;5060262;28;45543;-63
2022/05/30 04:23:07;;;;;;;;;11.75;8.25;;;;;10.55;70.60;100959.56;5061355;28;45357;-63
2022/05/30 04:25:32;;;;;;;;;8.75;8.50;;;;;10.57;71.38;100950.81;5060851;28;45265;-63
2022/05/30 04:27:58;;;;;;;;;7.75;7.50;;;;;10.56;71.01;100946.50;5061728;28;45653;-62
2022/05/30 04:30:24;;;;;;;;;8.75;7.75;;;;;10.60;70.95;100953.34;5060085;28;45660;-63
2022/05/30 04:32:50;;;;;;;;;10.00;7.00;;;;;10.61;70.20;100951.59;5061541;28;46111;-63
2022/05/30 04:35:16;;;;;;;;;8.75;8.00;;;;;10.62;70.81;100949.00;5061346;28;45317;-64
2022/05/30 04:37:41;;;;;;;;;12.50;8.00;;;;;10.65;70.14;100948.06;5061326;28;45209;-64
2022/05/30 04:40:09;;;;;;;;;5.00;5.00;;;;;10.70;69.90;100958.34;5061329;28;45680;-64
2022/05/30 04:42:35;;;;;;;;;8.00;8.00;;;;;10.71;70.42;100954.84;5061175;28;45555;-64
2022/05/30 04:45:00;;;;;;;;;9.50;7.00;;;;;10.71;70.52;100947.91;5060667;28;45360;-64
2022/05/30 04:47:26;;;;;;;;;9.25;5.50;;;;;10.71;70.70;100955.69;5061153;28;45450;-64
2022/05/30 04:49:52;;;;;;;;;12.50;9.00;;;;;10.72;70.15;100954.81;5061022;28;45497;-64
2022/05/30 04:52:17;;;;;;;;;11.25;8.25;;;;;10.77;69.11;100957.28;5061298;28;46217;-64
2022/05/30 04:54:43;;;;;;;;;11.75;10.00;;;;;10.79;69.57;100952.91;5060740;28;45314;-64
2022/05/30 04:57:09;;;;;;;;;13.75;8.75;;;;;10.82;69.54;100951.09;5061103;28;45257;-63
2022/05/30 04:59:38;;;;;;;;;9.00;6.25;;;;;10.88;69.99;100955.28;5060469;28;45577;-63
2022/05/30 05:02:04;;;;;;;;;8.00;6.25;;;;;10.91;69.53;100957.81;5052794;28;45559;-62
2022/05/30 05:04:29;;;;;;;;;13.00;8.00;;;;;10.94;68.88;100965.50;5060625;28;45382;-73
2022/05/30 05:06:55;;;;;;;;;10.00;8.75;;;;;11.02;68.87;100971.41;5061315;28;45334;-66
2022/05/30 05:09:28;;;;;;;;;10.75;8.00;;;;;11.06;68.67;100972.16;5060523;28;45578;-64
2022/05/30 05:11:53;;;;;;;;;13.00;12.75;;;;;11.09;69.03;100972.94;5060721;28;46069;-65
2022/05/30 05:14:19;;;;;;;;;11.25;9.25;;;;;11.11;68.54;100978.94;5060489;28;45378;-69
2022/05/30 05:16:44;;;;;;;;;9.50;8.00;;;;;11.14;68.87;100978.00;5061008;28;45275;-64
2022/05/30 05:19:10;;;;;;;;;11.50;8.00;;;;;11.15;68.46;100972.75;5060227;28;45533;-65
2022/05/30 05:21:38;;;;;;;;;14.25;9.50;;;;;11.16;68.04;100981.41;5060534;28;45603;-65
2022/05/30 05:24:06;;;;;;;;;10.00;8.25;;;;;11.19;68.08;100976.13;5059535;28;45863;-70
2022/05/30 05:26:32;;;;;;;;;9.25;9.00;;;;;11.21;67.81;100974.34;5060688;28;45337;-68
2022/05/30 05:28:58;;;;;;;;;10.00;9.00;;;;;11.31;67.58;100980.19;5059400;28;45295;-68
2022/05/30 05:31:27;;;;;;;;;14.00;12.00;;;;;11.37;67.42;100975.66;5058972;28;47223;-71
2022/05/30 05:33:54;;;;;;;;;8.25;8.00;;;;;11.38;67.73;100976.50;5059805;28;45851;-65
2022/05/30 05:36:26;;;;;;;;;12.50;11.00;;;;;11.37;67.38;100974.78;5058875;28;45425;-65
2022/05/30 05:38:52;;;;;;;;;9.25;8.75;;;;;11.39;67.14;100973.84;5092408;27;45942;-65
2022/05/30 05:41:18;;;;;;;;;12.25;10.00;;;;;11.43;67.18;100985.91;5060371;28;45418;-69
2022/05/30 05:43:44;;;;;;;;;11.75;9.25;;;;;11.45;67.25;100983.28;5059510;28;45374;-63
2022/05/30 05:46:18;;;;;;;;;12.50;9.00;;;;;11.49;66.77;100984.88;5060009;28;45268;-63
2022/05/30 05:48:44;;;;;;;;;13.25;9.00;;;;;11.54;67.07;100983.00;5067300;28;45437;-66
2022/05/30 05:51:09;;;;;;;;;9.00;9.00;;;;;11.56;67.48;100991.63;5059910;28;45399;-65
2022/05/30 05:53:35;;;;;;;;;13.00;8.75;;;;;11.60;66.89;100985.44;5059992;28;45266;-70
2022/05/30 05:56:10;;;;;;;;;11.00;10.00;;;;;11.66;66.29;100989.63;5060454;28;45266;-71
2022/05/30 05:58:36;;;;;;;;;11.25;11.00;;;;;11.66;66.51;100993.09;5060060;28;45461;-66
2022/05/30 06:01:13;;;;;;;;;9.50;8.25;;;;;11.63;65.96;100985.38;5059861;28;45336;-67
2022/05/30 06:03:38;;;;;;;;;12.25;8.00;;;;;11.71;66.57;100991.19;5060043;28;45181;-67
2022/05/30 06:06:05;;;;;;;;;8.25;8.25;;;;;11.78;66.61;100987.56;5059771;28;45493;-68
2022/05/30 06:08:31;;;;;;;;;9.00;6.00;;;;;11.85;66.27;100983.03;5059646;28;45416;-73
2022/05/30 06:11:05;;;;;;;;;7.25;7.25;;;;;12.03;67.95;100992.94;5059623;28;46258;-70
2022/05/30 06:13:35;;;;;;;;;10.75;10.00;;;;;12.22;66.35;101008.88;5059816;28;45809;-70
2022/05/30 06:16:02;;;;;;;;;8.50;5.00;;;;;12.25;66.27;100997.50;5058207;28;45518;-67
2022/05/30 06:18:28;;;;;;;;;15.75;8.50;;;;;12.30;65.88;100996.44;5059743;28;45391;-67
2022/05/30 06:21:00;;;;;;;;;10.25;7.25;;;;;12.32;65.83;100994.66;5057346;28;48249;-67
2022/05/30 06:23:25;;;;;;;;;12.25;9.50;;;;;12.34;65.83;101003.28;5057535;28;45786;-67
2022/05/30 06:25:51;;;;;;;;;15.00;10.25;;;;;12.42;65.67;100993.47;5057816;28;45308;-67
2022/05/30 06:28:16;;;;;;;;;5.00;3.00;;;;;12.53;65.29;100994.88;5057218;28;45422;-67
2022/05/30 06:30:41;;;;;;;;;12.25;9.50;;;;;12.56;65.09;100987.81;5058377;28;45289;-67
2022/05/30 06:33:07;;;;;;;;;11.00;7.75;;;;;12.59;64.98;100992.06;5091788;27;45262;-67
2022/05/30 06:35:32;;;;;;;;;12.75;9.50;;;;;12.68;64.81;100994.41;5059342;28;45428;-67
2022/05/30 06:37:57;;;;;;;;;11.25;9.50;;;;;12.75;64.36;100993.28;5059307;28;45421;-67
2022/05/30 06:40:24;;;;;;;;;4.75;3.75;;;;;12.83;64.21;100995.69;5074702;28;47336;-67
2022/05/30 06:42:49;;;;;;;;;11.50;10.75;;;;;12.87;64.45;101000.72;5058798;28;45975;-66
2022/05/30 06:45:15;;;;;;;;;12.25;11.00;;;;;12.89;64.16;101000.69;5058473;28;45395;-66
2022/05/30 06:47:40;;;;;;;;;12.00;9.75;;;;;12.96;64.06;101000.41;5057874;28;45446;-66
2022/05/30 06:50:06;;;;;;;;;8.75;8.75;;;;;13.00;63.65;101011.59;5057947;28;46436;-66
2022/05/30 06:52:31;;;;;;;;;9.00;8.00;;;;;13.04;63.50;101013.22;5058406;28;45306;-65
2022/05/30 06:54:56;;;;;;;;;10.75;9.00;;;;;13.08;63.25;101010.47;5058704;28;45419;-67
2022/05/30 07:00:06;;;;;;;;;8.25;7.00;;;;;13.35;62.56;101000.84;5057102;28;45342;-70
2022/05/30 07:02:32;;;;;;;;;11.00;4.50;;;;;13.42;62.50;101000.66;5055208;28;45693;-70
2022/05/30 07:04:57;;;;;;;;;8.00;6.25;;;;;13.49;62.32;101003.00;5056925;28;46269;-68
2022/05/30 07:07:23;;;;;;;;;9.25;9.00;;;;;13.49;62.36;100996.91;5057948;28;45342;-68
2022/05/30 07:09:48;;;;;;;;;9.75;7.00;;;;;13.58;62.38;100994.81;5058753;28;46247;-68
2022/05/30 07:12:13;;;;;;;;;8.25;6.25;;;;;13.70;61.98;100996.16;5058563;28;45287;-69
2022/05/30 07:14:39;;;;;;;;;8.00;7.00;;;;;13.75;62.12;100994.22;5058886;28;45414;-68
2022/05/30 07:17:06;;;;;;;;;8.25;6.25;;;;;13.81;60.73;101000.97;5058655;28;45506;-66
2022/05/30 07:19:32;;;;;;;;;7.75;5.00;;;;;13.87;60.99;100987.69;5058265;28;46190;-67
2022/05/30 07:21:58;;;;;;;;;5.50;5.00;;;;;13.99;60.63;100992.44;5058336;28;45311;-66
2022/05/30 07:24:24;;;;;;;;;6.25;4.50;;;;;14.10;60.07;100999.91;5058589;28;45288;-68
2022/05/30 07:26:49;;;;;;;;;4.00;3.50;;;;;14.21;60.15;101003.78;5058564;28;45537;-66
2022/05/30 07:29:15;;;;;;;;;9.75;7.00;;;;;14.27;59.74;101003.59;5058334;28;46401;-66
2022/05/30 07:31:41;;;;;;;;;6.50;5.75;;;;;14.41;59.16;101000.41;5058750;28;45288;-67
2022/05/30 07:34:06;;;;;;;;;7.00;6.00;;;;;14.52;59.04;101000.03;5058729;28;45682;-67
2022/05/30 07:36:32;;;;;;;;;13.75;7.00;;;;;14.62;59.03;100988.31;5058611;28;45470;-65
2022/05/30 07:38:58;;;;;;;;;4.50;4.50;;;;;14.75;58.44;100991.25;5058473;28;46127;-65
2022/05/30 07:41:26;;;;;;;;;5.00;3.50;;;;;14.86;57.63;100996.91;5058996;28;45334;-65
2022/05/30 07:43:51;;;;;;;;;5.25;5.25;;;;;14.95;57.71;100988.69;5058405;28;45288;-65
2022/05/30 07:46:19;;;;;;;;;4.00;4.00;;;;;15.02;56.75;100989.28;5058563;28;45181;-65
2022/05/30 07:48:45;;;;;;;;;8.75;7.25;;;;;15.04;56.65;100996.16;5058862;28;45449;-65
2022/05/30 07:51:13;;;;;;;;;7.75;5.75;;;;;15.05;56.65;100987.41;5057833;28;45400;-65
2022/05/30 07:53:40;;;;;;;;;6.25;5.00;;;;;15.09;56.36;100993.34;5058656;28;45315;-65
2022/05/30 07:56:08;;;;;;;;;6.75;5.00;;;;;15.10;55.27;100987.19;5058646;28;45479;-65
2022/05/30 07:58:34;;;;;;;;;9.50;6.50;;;;;15.13;55.83;100989.69;5058682;28;46350;-65
2022/05/30 08:00:59;;;;;;;;;5.50;5.00;;;;;15.18;55.27;100990.31;5061550;28;45172;-65
2022/05/30 08:03:26;;;;;;;;;4.25;4.25;;;;;15.27;55.12;100987.34;5062102;28;45929;-65
2022/05/30 08:06:01;;;;;;;;;6.00;4.50;;;;;15.44;54.88;100989.22;5061926;28;45403;-66
2022/05/30 08:08:27;;;;;;;;;2.25;2.25;;;;;15.48;54.62;100991.63;5060909;28;46276;-65
2022/05/30 08:10:53;;;;;;;;;4.75;3.25;;;;;15.48;54.47;100991.63;5059440;28;45407;-66
2022/05/30 08:13:18;;;;;;;;;6.50;3.00;;;;;15.48;53.21;100996.03;5059636;28;45658;-65
2022/05/30 08:15:43;;;;;;;;;6.75;5.00;;;;;15.51;53.45;100996.75;5091942;27;45638;-65
2022/05/30 08:18:14;;;;;;;;;2.75;2.75;;;;;15.61;52.42;101001.59;5059301;28;45439;-66
2022/05/30 08:20:39;;;;;;;;;3.00;3.00;;;;;15.74;52.38;100997.53;5059344;28;45458;-66
2022/05/30 08:23:05;;;;;;;;;7.00;5.00;;;;;15.86;51.65;100991.75;5059274;28;45415;-66
2022/05/30 08:25:30;;;;;;;;;5.00;3.75;;;;;15.93;51.70;100993.16;5061638;28;45503;-66
2022/05/30 08:27:56;;;;;;;;;7.50;5.25;;;;;15.90;51.22;100993.28;5061401;28;46700;-64
2022/05/30 08:30:21;;;;;;;;;5.75;4.75;;;;;15.93;51.01;100990.53;5061171;28;45251;-64
2022/05/30 08:32:47;;;;;;;;;0.25;0.00;;;;;15.99;50.51;100985.00;5061891;28;45438;-65
2022/05/30 08:35:16;;;;;;;;;5.00;3.75;;;;;16.11;49.73;100980.97;5076876;28;45654;-64
2022/05/30 08:37:42;;;;;;;;;8.25;3.25;;;;;16.22;50.34;100981.34;5059945;28;48116;-64
2022/05/30 08:43:25;;;;;;;;;6.25;3.00;;;;;16.45;49.45;100982.00;5061170;28;45343;-65
2022/05/30 08:45:59;;;;;;;;;4.75;4.00;;;;;16.36;48.57;100975.41;5060756;28;45324;-65
2022/05/30 08:48:53;;;;;;;;;1.25;0.75;;;;;16.30;46.80;100979.19;5061053;28;46635;-65
2022/05/30 08:51:43;;;;;;;;;6.00;4.75;;;;;16.24;48.36;100970.78;5059523;28;45245;-65
2022/05/30 08:54:47;;;;;;;;;4.00;4.00;;;;;16.24;48.36;100968.16;5059611;28;45406;-65
2022/05/30 08:57:43;;;;;;;;;4.00;3.00;;;;;16.24;47.93;100968.16;5060854;28;45280;-65
2022/05/30 09:00:20;;;;;;;;;5.50;2.25;;;;;16.21;47.54;100974.34;5060702;28;45291;-65
2022/05/30 09:02:52;;;;;;;;;3.00;3.00;;;;;16.20;45.41;100982.31;5093304;27;45859;-65
2022/05/30 09:05:36;;;;;;;;;0.00;0.00;;;;;16.22;45.90;100977.81;5061041;28;45498;-65
2022/05/30 09:08:06;;;;;;;;;3.50;1.75;;;;;16.19;46.15;100970.13;5060862;28;45307;-65
2022/05/30 09:10:56;;;;;;;;;5.00;3.50;;;;;16.25;46.26;100970.69;5060451;28;46371;-65
2022/05/30 09:13:33;;;;;;;;;25.25;17.50;;;;;16.30;46.72;100970.47;5060745;28;45317;-65
2022/05/30 09:16:16;;;;;;;;;4.50;4.50;;;;;16.27;46.35;100978.47;5076221;28;45532;-65
2022/05/30 09:18:47;;;;;;;;;2.50;2.50;;;;;16.34;46.03;100977.25;5060583;28;45302;-65
2022/05/30 09:21:18;;;;;;;;;2.75;2.75;;;;;16.39;45.58;100967.41;5059253;28;48397;-65
2022/05/30 09:23:44;;;;;;;;;3.75;3.75;;;;;16.44;45.24;100975.91;5060417;28;45793;-64
2022/05/30 09:26:16;;;;;;;;;4.50;4.50;;;;;16.48;45.23;100969.59;5061007;28;45331;-64
2022/05/30 09:28:44;;;;;;;;;41.25;27.00;;;;;16.53;45.41;100969.38;5059265;28;45473;-65
2022/05/30 09:31:31;;;;;;;;;1.00;1.00;;;;;16.57;42.66;100970.91;5060535;28;46390;-64
2022/05/30 09:33:58;;;;;;;;;3.75;2.00;;;;;16.56;44.32;100970.06;5059066;28;45248;-65
2022/05/30 09:36:29;;;;;;;;;3.00;3.00;;;;;16.69;44.55;100965.09;5060778;28;45371;-65
2022/05/30 09:39:14;;;;;;;;;32.75;25.75;;;;;16.89;44.35;100964.13;5060361;28;45307;-64
2022/05/30 09:41:39;;;;;;;;;3.00;3.00;;;;;17.05;44.25;100957.16;5060701;28;46462;-64
2022/05/30 09:44:16;;;;;;;;;5.50;5.50;;;;;16.98;43.70;100958.38;5059661;28;45270;-64
2022/05/30 09:47:04;;;;;;;;;5.50;4.75;;;;;16.96;43.71;100955.00;5060180;28;45225;-64
2022/05/30 09:49:35;;;;;;;;;3.00;3.00;;;;;17.05;43.67;100954.53;5060028;28;45356;-64
2022/05/30 09:52:04;;;;;;;;;2.75;2.00;;;;;17.07;43.59;100943.97;5060072;28;45316;-65
2022/05/30 09:54:38;;;;;;;;;4.25;4.00;;;;;17.07;42.97;100942.19;5060248;28;45650;-64
2022/05/30 09:57:06;;;;;;;;;3.75;2.00;;;;;17.08;41.55;100946.50;5060484;28;45272;-64
2022/05/30 09:59:37;;;;;;;;;6.00;2.00;;;;;17.12;43.50;100948.03;5092140;27;45588;-64
2022/05/30 10:02:27;;;;;;;;;3.75;3.00;;;;;17.19;42.97;100952.03;5059915;28;46480;-64
2022/05/30 10:05:04;;;;;;;;;9.00;6.00;;;;;17.24;42.26;100947.41;5072136;28;45346;-65
2022/05/30 10:07:32;;;;;;;;;5.00;4.50;;;;;17.39;42.21;100945.75;5054614;28;45308;-66
2022/05/30 10:10:20;;;;;;;;;4.00;4.00;;;;;17.59;42.21;100945.53;5059605;28;45221;-65
2022/05/30 10:13:07;;;;;;;;;4.00;4.00;;;;;17.72;42.40;100948.41;5023664;28;48310;-66
2022/05/30 10:15:42;;;;;;;;;8.75;6.75;;;;;17.71;42.04;100946.72;5059171;28;45316;-66
2022/05/30 10:18:10;;;;;;;;;4.50;3.50;;;;;17.72;40.65;100951.03;5059332;28;45310;-66
2022/05/30 10:21:03;;;;;;;;;4.00;3.50;;;;;17.83;40.87;100937.34;5056792;28;45696;-66
2022/05/30 10:29:44;;;;;;;;;1.50;1.50;;;;;18.12;39.95;100946.25;5046138;28;45261;-66
2022/05/30 10:32:17;;;;;;;;;4.00;4.00;;;;;18.22;40.18;100955.31;5058770;28;45244;-66
2022/05/30 10:35:08;;;;;;;;;2.50;2.00;;;;;18.36;39.54;100963.28;5058859;28;45686;-66
2022/05/30 10:37:52;;;;;;;;;2.75;2.00;;;;;18.31;39.33;100956.59;5059378;28;45433;-66
2022/05/30 10:40:27;;;;;;;;;1.50;1.50;;;;;18.29;38.93;100961.09;5054405;28;45479;-67
2022/05/30 10:42:58;;;;;;;;;3.50;2.50;;;;;18.38;38.47;100950.03;5050687;28;45652;-66
2022/05/30 10:45:49;;;;;;;;;3.50;2.00;;;;;18.42;39.04;100952.44;5058783;28;45654;-66
2022/05/30 10:48:33;;;;;;;;;3.25;3.00;;;;;18.41;38.95;100941.97;5055255;28;45244;-66
2022/05/30 10:51:22;;;;;;;;;4.00;2.50;;;;;18.51;39.18;100937.88;5055245;28;45465;-65
2022/05/30 10:54:09;;;;;;;;;4.50;4.00;;;;;18.75;39.29;100948.81;5055208;28;45631;-65
2022/05/30 10:56:39;;;;;;;;;3.00;3.00;;;;;18.75;39.17;100943.53;5055728;28;47189;-64
2022/05/30 10:59:26;;;;;;;;;4.00;2.00;;;;;18.71;39.47;100939.41;5058425;28;46433;-65
2022/05/30 11:02:19;;;;;;;;;4.00;3.00;;;;;18.59;39.32;100940.06;5058516;28;45385;-65
2022/05/30 11:05:10;;;;;;;;;3.25;2.75;;;;;18.46;38.88;100943.41;5057376;28;45377;-66
2022/05/30 11:07:53;;;;;;;;;3.25;2.75;;;;;18.46;38.04;100943.41;5055613;28;46123;-64
2022/05/30 11:10:36;;;;;;;;;3.75;3.00;;;;;18.60;37.73;100942.59;5058566;28;45272;-64
2022/05/30 11:13:07;;;;;;;;;6.75;4.00;;;;;18.75;38.17;100952.28;5058717;28;46421;-64
2022/05/30 11:15:40;;;;;;;;;2.00;2.00;;;;;18.76;37.94;100942.59;5058438;28;45450;-64
2022/05/30 11:18:10;;;;;;;;;4.25;3.00;;;;;18.70;38.18;100946.44;5059040;28;45508;-65
2022/05/30 11:21:17;;;;;;;;;1.50;1.50;;;;;18.65;38.44;100939.75;5058680;28;45216;-65
2022/05/30 11:23:43;;;;;;;;;1.00;1.00;;;;;18.65;37.44;100937.13;4977039;28;45392;-64
2022/05/30 11:26:17;;;;;;;;;3.25;2.75;;;;;18.66;38.25;100939.66;5035364;28;45574;-64
2022/05/30 11:28:54;;;;;;;;;3.50;2.00;;;;;18.62;38.19;100924.97;5057846;28;46588;-64
2022/05/30 11:31:32;;;;;;;;;5.00;2.75;;;;;18.65;38.18;100926.59;5056938;28;45259;-62
2022/05/30 11:34:29;;;;;;;;;2.25;1.75;;;;;18.72;37.11;100927.94;5057441;28;45442;-64
2022/05/30 11:37:14;;;;;;;;;2.00;2.00;;;;;19.00;38.14;100930.63;5059062;28;45387;-67
2022/05/30 11:39:42;;;;;;;;;3.00;3.00;;;;;19.25;37.13;100916.00;5060307;28;45465;-67
2022/05/30 11:42:15;;;;;;;;;3.00;3.00;;;;;19.51;36.21;100922.31;5061759;28;45205;-66
2022/05/30 11:44:47;;;;;;;;;5.50;4.00;;;;;19.83;35.98;100917.69;5092334;27;45286;-63
2022/05/30 11:47:42;;;;;;;;;2.75;2.00;;;;;20.05;35.58;100929.44;5060704;28;45714;-65
2022/05/30 11:50:28;;;;;;;;;5.00;2.00;;;;;20.19;35.07;100927.66;5061648;28;46186;-66
2022/05/30 11:53:05;;;;;;;;;4.00;3.00;;;;;20.35;35.36;100925.75;5061412;28;45371;-66
2022/05/30 11:56:12;;;;;;;;;2.00;2.00;;;;;20.56;34.41;100918.22;5060268;28;45360;-68
2022/05/30 11:59:16;;;;;;;;;3.00;3.00;;;;;20.65;34.71;100915.00;4979264;28;45344;-68